Shawswick, Indiana
Current Conditions -  °F | °C
As of 11:53 AM on Saturday 22 Nov 2014 (Local Time) from KBMG Reporting Station
Overcast Overcast  
Wind Chill: 54°   Ceiling: 5000
Heat Index: 54°   Visibility: 10mi
Dew Point: 41°   Wind: 16mph
Humidity: 62%   Direction: 210°SSW
Pressure: 30.16"   Gusts: 32mph
Location:  38.8737°N, 86.4563°W
Report Text: KBMG 221653Z 21014G28KT 10SM OVC050 12/05 A3016 RMK AO2 PK WND 21028/1644 SLP215 T01220050
Loading
Personal Weather Stations






























Interactive Weather Map New forecast layout! Learn more

10-Day Weather Forecast

Advertisements
Track Severe Weather on mobile